Time;durP1;ratioP1;P1;durP2;ratioP2;P2;SDS_P1;SDS_P2;PMS_P1;PMS_P2;Temp;Humidity;BMP_temperature;BMP_pressure;BME280_temperature;BME280_humidity;BME280_pressure;Samples;Min_cycle;Max_cycle;Signal;HPM_P1;HPM_P2
2022/12/31 00:01:50;;;;;;;83.87;39.80;;;;;;;4.44;85.74;95050.12;1768204;80;20994;-45
2022/12/31 00:04:17;;;;;;;80.80;40.23;;;;;;;4.41;85.67;95059.10;1782629;80;20965;-42
2022/12/31 00:06:44;;;;;;;84.40;40.48;;;;;;;4.34;85.52;95061.09;1787228;80;21533;-43
2022/12/31 00:09:11;;;;;;;77.90;36.42;;;;;;;4.27;85.64;95064.64;1774608;80;21231;-44
2022/12/31 00:11:38;;;;;;;93.03;42.50;;;;;;;4.18;85.80;95068.41;1770535;80;21042;-43
2022/12/31 00:14:05;;;;;;;96.50;41.60;;;;;;;4.15;86.38;95063.76;1775412;80;21403;-43
2022/12/31 00:16:37;;;;;;;81.70;40.20;;;;;;;4.20;86.39;95073.46;1767851;80;20986;-43
2022/12/31 00:19:08;;;;;;;71.95;37.10;;;;;;;4.18;86.30;95084.73;1766271;80;20951;-43
2022/12/31 00:21:35;;;;;;;80.40;39.40;;;;;;;4.14;86.68;95079.91;1776461;80;21141;-43
2022/12/31 00:24:03;;;;;;;76.35;37.60;;;;;;;4.17;87.02;95081.83;1759306;80;21186;-43
2022/12/31 00:26:31;;;;;;;69.85;33.55;;;;;;;4.29;87.24;95090.12;1772890;80;21006;-42
2022/12/31 00:28:59;;;;;;;71.82;32.85;;;;;;;4.37;87.04;95084.80;1777133;80;21061;-43
2022/12/31 00:31:29;;;;;;;61.23;29.18;;;;;;;4.42;87.08;95087.88;1772918;80;20959;-47
2022/12/31 00:33:56;;;;;;;58.02;30.48;;;;;;;4.50;86.99;95081.80;1767313;80;21341;-43
2022/12/31 00:36:26;;;;;;;53.17;28.07;;;;;;;4.57;86.74;95074.96;1752842;80;20949;-42
2022/12/31 00:38:55;;;;;;;61.42;32.75;;;;;;;4.57;86.16;95070.27;1706290;82;21053;-43
2022/12/31 00:41:22;;;;;;;59.23;29.20;;;;;;;4.46;85.93;95079.09;1674639;84;21000;-43
2022/12/31 00:43:49;;;;;;;49.33;27.00;;;;;;;4.41;86.45;95082.25;1655363;85;21064;-43
2022/12/31 00:46:16;;;;;;;63.28;32.53;;;;;;;4.43;86.62;95082.63;1650370;85;21270;-43
2022/12/31 00:48:43;;;;;;;69.12;34.78;;;;;;;4.37;86.64;95088.31;1654333;85;21516;-42
2022/12/31 00:51:12;;;;;;;51.30;28.98;;;;;;;4.41;86.98;95089.66;1651626;85;21242;-42
2022/12/31 00:53:38;;;;;;;46.73;24.45;;;;;;;4.46;86.49;95085.14;1654716;85;21150;-42
2022/12/31 00:56:14;;;;;;;49.63;26.90;;;;;;;4.41;86.17;95101.31;1655651;85;21102;-42
2022/12/31 00:58:41;;;;;;;45.55;26.30;;;;;;;4.35;86.16;95092.03;1654719;85;21948;-43
2022/12/31 01:01:20;;;;;;;50.63;28.12;;;;;;;4.33;86.22;95094.38;1650089;85;21043;-43
2022/12/31 01:03:50;;;;;;;54.48;30.72;;;;;;;4.26;86.23;95089.56;1651279;85;21596;-43
2022/12/31 01:06:17;;;;;;;55.75;29.40;;;;;;;4.15;86.08;95089.62;1643145;84;21158;-43
2022/12/31 01:08:46;;;;;;;53.78;29.27;;;;;;;4.10;86.27;95091.41;1653546;86;21001;-43
2022/12/31 01:11:20;;;;;;;58.38;29.75;;;;;;;4.04;86.29;95090.86;1654398;86;21996;-43
2022/12/31 01:13:56;;;;;;;53.25;26.65;;;;;;;3.95;86.67;95089.92;1656044;86;20964;-42
2022/12/31 01:16:31;;;;;;;39.73;22.32;;;;;;;4.03;87.72;95092.03;1655972;86;21052;-50
2022/12/31 01:18:59;;;;;;;35.23;18.80;;;;;;;4.17;87.80;95088.63;1688960;82;21010;-43
2022/12/31 01:21:27;;;;;;;26.48;16.25;;;;;;;4.21;87.05;95085.30;1698414;83;21610;-44
2022/12/31 01:23:53;;;;;;;28.92;17.92;;;;;;;4.22;87.10;95080.04;1692565;82;21164;-43
2022/12/31 01:26:20;;;;;;;28.55;17.05;;;;;;;4.23;86.74;95074.78;1683101;83;21098;-43
2022/12/31 01:28:47;;;;;;;26.97;17.02;;;;;;;4.15;86.26;95082.81;1691273;83;20994;-42
2022/12/31 01:31:16;;;;;;;31.35;17.98;;;;;;;4.01;86.26;95085.61;1700375;82;21023;-43
2022/12/31 01:33:43;;;;;;;27.45;16.40;;;;;;;3.90;86.50;95086.23;1688129;84;20983;-42
2022/12/31 01:36:14;;;;;;;28.65;16.27;;;;;;;3.86;86.93;95092.89;1679321;84;21238;-42
2022/12/31 01:38:41;;;;;;;22.22;13.38;;;;;;;3.88;87.14;95094.02;1661665;85;21152;-43
2022/12/31 01:41:14;;;;;;;18.82;13.28;;;;;;;3.90;87.10;95095.76;1752241;81;20987;-42
2022/12/31 01:44:01;;;;;;;;;;;;;;;3.86;87.05;95089.56;1748521;81;21082;-42
2022/12/31 01:46:47;;;;;;;18.62;12.20;;;;;;;3.88;87.01;95091.30;1744309;81;20451;-42
2022/12/31 01:49:26;;;;;;;16.35;12.13;;;;;;;3.82;86.84;95090.17;1734288;81;21155;-43
2022/12/31 01:51:57;;;;;;;16.35;11.57;;;;;;;3.87;87.32;95078.86;1745149;81;21585;-43
2022/12/31 01:54:24;;;;;;;16.17;12.10;;;;;;;3.83;86.65;95078.11;1709173;83;21450;-43
2022/12/31 01:56:51;;;;;;;18.62;13.28;;;;;;;3.72;86.54;95080.09;1697506;83;21066;-43
2022/12/31 01:59:18;;;;;;;21.85;14.10;;;;;;;3.74;86.95;95071.55;1710809;83;21624;-43
2022/12/31 02:01:47;;;;;;;18.07;11.60;;;;;;;3.84;87.38;95062.58;1707110;82;21252;-42
2022/12/31 02:04:13;;;;;;;21.75;13.18;;;;;;;3.97;87.27;95062.30;1704768;83;21022;-43
2022/12/31 02:06:51;;;;;;;22.87;15.23;;;;;;;3.93;86.46;95062.34;1705534;83;21072;-42
2022/12/31 02:09:17;;;;;;;20.12;12.40;;;;;;;3.83;86.44;95067.23;1685295;83;21467;-43
2022/12/31 02:11:44;;;;;;;18.20;12.80;;;;;;;3.85;86.60;95084.53;1709196;83;21566;-42
2022/12/31 02:14:15;;;;;;;27.65;16.85;;;;;;;3.92;87.05;95077.12;1706526;83;21818;-42
2022/12/31 02:17:17;;;;;;;26.85;17.17;;;;;;;3.95;86.76;95073.59;1679200;83;21084;-43
2022/12/31 02:20:17;;;;;;;28.98;16.95;;;;;;;4.03;87.03;95071.62;1671648;84;21049;-42
2022/12/31 02:22:59;;;;;;;32.73;16.52;;;;;;;4.16;86.74;95070.75;1670735;85;21478;-42
2022/12/31 02:25:46;;;;;;;24.35;15.32;;;;;;;4.22;86.06;95074.59;1645565;86;21049;-43
2022/12/31 02:28:51;;;;;;;23.52;13.75;;;;;;;4.19;85.36;95075.39;1651764;86;21176;-43
2022/12/31 02:31:36;;;;;;;22.07;14.07;;;;;;;4.09;84.69;95077.58;1646527;86;21145;-43
2022/12/31 02:34:17;;;;;;;23.55;14.75;;;;;;;3.96;84.84;95077.87;1652548;85;21136;-42
2022/12/31 02:36:45;;;;;;;22.58;13.45;;;;;;;3.93;84.85;95076.52;1654508;86;21045;-42
2022/12/31 02:39:12;;;;;;;21.80;14.07;;;;;;;3.82;84.55;95076.56;1652478;86;21093;-42
2022/12/31 02:41:48;;;;;;;23.30;13.83;;;;;;;3.74;84.90;95081.86;1628620;87;21279;-43
2022/12/31 02:44:33;;;;;;;21.40;13.85;;;;;;;3.74;85.17;95083.22;1651589;86;20946;-42
2022/12/31 02:47:19;;;;;;;17.73;13.13;;;;;;;3.67;84.76;95088.67;1679641;84;26422;-43
2022/12/31 02:50:10;;;;;;;21.17;14.73;;;;;;;3.54;84.92;95094.34;1683246;84;21093;-42
2022/12/31 02:53:06;;;;;;;19.27;12.55;;;;;;;3.51;85.56;95095.73;1664887;85;21009;-43
2022/12/31 02:55:52;;;;;;;23.45;13.95;;;;;;;3.48;85.62;95097.10;1661855;85;21111;-43
2022/12/31 03:04:32;;;;;;;19.87;13.50;;;;;;;3.36;86.08;95100.23;1628176;87;21035;-43
2022/12/31 03:07:12;;;;;;;23.90;14.30;;;;;;;3.37;85.91;95109.94;1584750;87;21068;-45
2022/12/31 03:09:39;;;;;;;41.45;20.65;;;;;;;3.26;85.85;95103.77;1599973;87;22557;-42
2022/12/31 03:14:53;;;;;;;20.23;13.40;;;;;;;3.17;86.12;95116.40;1606926;87;21018;-43
2022/12/31 03:17:20;;;;;;;22.60;14.47;;;;;;;3.18;86.09;95119.88;1618735;87;21144;-43
2022/12/31 03:22:36;;;;;;;20.30;13.70;;;;;;;3.26;87.13;95105.88;1613710;87;21295;-41
2022/12/31 03:25:33;;;;;;;19.90;14.53;;;;;;;3.37;86.85;95115.37;1626723;87;21052;-43
2022/12/31 03:28:11;;;;;;;21.97;14.25;;;;;;;3.44;86.59;95105.26;1617412;87;21058;-43
2022/12/31 03:30:40;;;;;;;19.02;13.78;;;;;;;3.53;86.97;95118.63;1515264;93;21141;-43
2022/12/31 03:33:07;;;;;;;25.80;14.28;;;;;;;3.64;86.35;95105.79;1543037;92;21069;-43
2022/12/31 03:35:36;;;;;;;23.10;14.03;;;;;;;3.68;86.34;95113.95;1515675;92;21328;-43
2022/12/31 03:38:04;;;;;;;21.85;15.45;;;;;;;3.81;86.18;95121.27;1537424;92;21073;-43
2022/12/31 03:40:31;;;;;;;25.43;14.03;;;;;;;3.84;85.35;95115.64;1518828;93;21602;-43
2022/12/31 03:42:58;;;;;;;23.10;14.93;;;;;;;3.88;85.18;95119.88;1545098;92;21141;-41
2022/12/31 03:45:25;;;;;;;29.45;14.73;;;;;;;3.96;85.10;95118.69;1524553;92;21188;-43
2022/12/31 03:47:52;;;;;;;23.65;15.08;;;;;;;4.03;84.40;95120.01;1578992;86;22216;-42
2022/12/31 03:50:19;;;;;;;22.05;14.70;;;;;;;4.03;84.15;95117.28;1643931;86;21092;-42
2022/12/31 03:52:46;;;;;;;23.67;15.35;;;;;;;4.12;84.50;95126.38;1638570;86;21147;-42
2022/12/31 03:55:12;;;;;;;22.07;14.28;;;;;;;4.13;83.48;95123.28;1634871;87;21089;-42
2022/12/31 03:57:40;;;;;;;22.70;14.47;;;;;;;4.10;83.58;95130.88;1645999;86;21094;-42
2022/12/31 04:00:09;;;;;;;27.50;16.70;;;;;;;4.11;83.70;95127.56;1646290;86;21270;-42
2022/12/31 04:02:36;;;;;;;25.60;17.67;;;;;;;4.17;83.48;95121.30;1636634;86;20980;-41
2022/12/31 04:05:03;;;;;;;29.50;17.45;;;;;;;4.19;83.25;95117.59;1610370;87;21068;-42
2022/12/31 04:07:30;;;;;;;27.52;18.02;;;;;;;4.25;82.76;95121.44;1642108;86;21146;-43
2022/12/31 04:09:57;;;;;;;25.27;16.40;;;;;;;4.09;81.55;95121.73;1644523;86;20974;-42
2022/12/31 04:12:24;;;;;;;29.82;17.27;;;;;;;3.87;81.36;95131.17;1576625;89;21387;-42
2022/12/31 04:14:50;;;;;;;20.60;14.73;;;;;;;3.71;81.58;95130.23;1582133;89;21077;-42
2022/12/31 04:17:17;;;;;;;22.95;14.93;;;;;;;3.60;81.91;95127.36;1579529;89;21024;-42
2022/12/31 04:19:43;;;;;;;23.38;15.63;;;;;;;3.45;81.99;95129.16;1591517;90;21134;-43
2022/12/31 04:22:11;;;;;;;26.40;15.15;;;;;;;3.31;82.10;95131.33;1590444;89;21048;-42
2022/12/31 04:24:37;;;;;;;21.42;14.47;;;;;;;3.18;82.35;95140.27;1585767;89;21185;-43
2022/12/31 04:27:04;;;;;;;28.57;17.20;;;;;;;3.18;83.15;95130.75;1613524;84;20994;-43
2022/12/31 04:29:32;;;;;;;25.27;15.93;;;;;;;3.19;82.90;95127.66;1684321;84;21594;-43
2022/12/31 04:31:59;;;;;;;23.07;15.43;;;;;;;3.11;83.20;95141.08;1685378;83;21058;-42
2022/12/31 04:34:26;;;;;;;22.93;15.13;;;;;;;3.01;83.20;95143.77;1687253;83;21049;-42
2022/12/31 04:36:53;;;;;;;32.75;14.90;;;;;;;2.86;83.44;95153.11;1660055;84;21246;-42
2022/12/31 04:39:19;;;;;;;21.33;15.35;;;;;;;2.81;84.44;95154.83;1685144;83;21037;-43
2022/12/31 04:41:46;;;;;;;24.55;16.87;;;;;;;2.91;85.24;95150.00;1688756;83;21057;-43
2022/12/31 04:44:13;;;;;;;24.55;17.62;;;;;;;3.08;85.31;95150.58;1743810;81;21060;-43
2022/12/31 04:46:40;;;;;;;32.10;18.20;;;;;;;3.18;84.62;95151.92;1770452;80;21088;-43
2022/12/31 04:49:08;;;;;;;30.68;19.57;;;;;;;3.18;84.09;95141.05;1756763;80;21251;-43
2022/12/31 04:51:35;;;;;;;25.30;16.60;;;;;;;3.15;84.24;95148.63;1756176;80;20915;-44
2022/12/31 04:54:02;;;;;;;37.60;21.27;;;;;;;3.13;83.67;95140.66;1761570;80;21427;-43
2022/12/31 04:56:29;;;;;;;24.47;15.10;;;;;;;3.06;83.80;95148.23;1761767;80;21052;-43
2022/12/31 04:58:56;;;;;;;18.98;13.83;;;;;;;3.06;83.53;95152.31;1770510;80;20962;-42
2022/12/31 05:01:22;;;;;;;28.50;16.45;;;;;;;2.99;83.19;95162.41;1773657;80;21251;-42
2022/12/31 05:03:50;;;;;;;29.95;16.93;;;;;;;2.89;83.30;95157.77;1772077;80;20978;-43
2022/12/31 05:06:20;;;;;;;35.08;19.42;;;;;;;2.88;83.95;95163.00;1742614;81;20972;-42
2022/12/31 05:08:48;;;;;;;34.55;21.55;;;;;;;2.86;83.50;95163.98;1758040;80;20998;-43
2022/12/31 05:11:15;;;;;;;35.65;23.73;;;;;;;2.76;83.51;95164.73;1753931;80;21001;-42
2022/12/31 05:13:42;;;;;;;54.40;32.85;;;;;;;2.69;83.71;95163.38;1778508;80;21271;-43
2022/12/31 05:16:09;;;;;;;62.70;37.03;;;;;;;2.67;84.22;95148.05;1763699;80;21089;-42
2022/12/31 05:18:36;;;;;;;51.40;31.40;;;;;;;2.76;84.49;95144.36;1757594;80;20952;-43
2022/12/31 05:21:03;;;;;;;40.58;25.27;;;;;;;2.75;83.57;95145.53;1765468;80;21070;-43
2022/12/31 05:23:30;;;;;;;32.58;21.33;;;;;;;2.53;83.17;95138.53;1784734;80;21062;-43
2022/12/31 05:25:58;;;;;;;38.95;23.32;;;;;;;2.46;84.09;95148.00;1758869;80;21332;-43
2022/12/31 05:28:25;;;;;;;38.35;25.27;;;;;;;2.50;84.00;95135.23;1769036;80;20949;-43
2022/12/31 05:30:52;;;;;;;41.25;26.68;;;;;;;2.49;83.83;95133.69;1771385;80;21007;-43
2022/12/31 05:33:20;;;;;;;45.10;30.00;;;;;;;2.51;84.05;95142.22;1758560;80;21044;-43
2022/12/31 05:35:46;;;;;;;42.43;26.40;;;;;;;2.49;83.74;95141.83;1766752;79;20943;-42
2022/12/31 05:38:13;;;;;;;50.38;28.05;;;;;;;2.38;83.49;95143.73;1752333;80;21072;-43
2022/12/31 05:40:40;;;;;;;65.20;35.92;;;;;;;2.20;83.47;95145.63;1731041;80;21109;-44
2022/12/31 05:43:06;;;;;;;66.35;43.05;;;;;;;2.03;83.65;95149.07;1740053;80;21044;-42
2022/12/31 05:45:34;;;;;;;69.92;40.05;;;;;;;1.87;84.01;95143.20;1755636;80;21070;-43
2022/12/31 05:48:01;;;;;;;67.92;38.15;;;;;;;1.79;84.40;95136.20;1776141;80;21017;-43
2022/12/31 05:50:28;;;;;;;76.25;42.78;;;;;;;1.77;84.98;95146.66;1752900;80;21272;-44
2022/12/31 05:52:56;;;;;;;62.17;35.55;;;;;;;1.83;85.35;95135.06;1749559;81;21038;-43
2022/12/31 05:55:23;;;;;;;64.20;39.67;;;;;;;1.97;86.16;95126.95;1743925;81;20991;-43
2022/12/31 05:57:50;;;;;;;62.35;36.80;;;;;;;2.09;85.67;95129.89;1734255;82;21051;-43
2022/12/31 06:00:18;;;;;;;55.00;33.88;;;;;;;2.17;85.82;95122.75;1698930;83;21033;-43
2022/12/31 06:02:45;;;;;;;60.28;37.63;;;;;;;2.30;85.42;95113.09;1738971;81;22251;-42
2022/12/31 06:05:12;;;;;;;69.37;41.30;;;;;;;2.31;84.78;95116.59;1740538;81;21020;-43
2022/12/31 06:07:39;;;;;;;70.10;39.88;;;;;;;2.34;84.31;95113.10;1742927;81;21588;-42
2022/12/31 06:10:07;;;;;;;76.45;45.98;;;;;;;2.36;84.65;95114.25;1739009;81;20961;-42
2022/12/31 06:12:35;;;;;;;81.40;47.88;;;;;;;2.46;84.49;95117.58;1739905;81;20961;-42
2022/12/31 06:15:02;;;;;;;76.17;42.27;;;;;;;2.47;83.54;95124.55;1707837;81;21274;-43
2022/12/31 06:17:31;;;;;;;80.15;46.08;;;;;;;2.33;82.94;95128.59;1760121;80;21117;-45
2022/12/31 06:19:58;;;;;;;79.47;42.90;;;;;;;2.15;82.99;95127.02;1744012;80;21056;-43
2022/12/31 06:22:25;;;;;;;97.40;50.10;;;;;;;2.04;83.25;95132.42;1760931;80;20977;-43
2022/12/31 06:24:53;;;;;;;96.42;49.35;;;;;;;1.94;83.25;95138.58;1781931;80;20948;-43
2022/12/31 06:27:21;;;;;;;87.37;45.38;;;;;;;1.89;83.67;95142.23;1784975;79;21223;-43
2022/12/31 06:29:48;;;;;;;124.72;62.10;;;;;;;1.88;83.82;95131.19;1743833;81;21045;-42
2022/12/31 06:32:15;;;;;;;168.35;92.12;;;;;;;1.93;84.43;95140.33;1765829;80;21010;-43
2022/12/31 06:34:42;;;;;;;132.60;67.15;;;;;;;2.00;84.62;95121.36;1770185;80;20947;-43
2022/12/31 06:37:09;;;;;;;101.65;56.10;;;;;;;2.02;84.17;95136.10;1768051;80;21031;-43
2022/12/31 06:39:37;;;;;;;104.78;57.70;;;;;;;1.95;84.15;95143.44;1773124;80;21126;-44
2022/12/31 06:42:05;;;;;;;115.80;62.03;;;;;;;1.91;84.39;95140.70;1776036;80;21001;-43
2022/12/31 06:44:32;;;;;;;107.32;56.60;;;;;;;1.97;85.22;95132.98;1776779;80;21578;-44
2022/12/31 06:46:58;;;;;;;111.92;57.55;;;;;;;2.19;85.94;95129.16;1786028;80;20962;-44
2022/12/31 06:49:25;;;;;;;115.77;57.35;;;;;;;2.40;85.42;95135.98;1779907;79;20981;-46
2022/12/31 06:51:52;;;;;;;105.03;55.33;;;;;;;2.45;84.37;95130.16;1769674;80;21247;-43
2022/12/31 06:54:19;;;;;;;118.00;59.85;;;;;;;2.40;83.95;95130.55;1781193;80;21088;-43
2022/12/31 06:56:47;;;;;;;120.40;62.45;;;;;;;2.27;84.00;95138.86;1759253;80;20994;-46
2022/12/31 06:59:25;;;;;;;130.60;71.37;;;;;;;2.21;83.78;95130.91;1776268;80;21061;-44
2022/12/31 07:02:18;;;;;;;138.77;70.83;;;;;;;2.16;83.84;95136.12;1700858;83;21808;-43
2022/12/31 07:04:55;;;;;;;152.05;79.65;;;;;;;2.12;84.26;95133.98;1703123;83;21295;-44
2022/12/31 07:08:06;;;;;;;131.47;70.52;;;;;;;2.17;84.86;95139.63;1691840;83;21042;-44
2022/12/31 07:10:42;;;;;;;160.15;79.87;;;;;;;2.26;84.58;95135.38;1696718;83;21246;-45
2022/12/31 07:13:36;;;;;;;133.52;71.70;;;;;;;2.33;84.68;95138.70;1705237;83;21107;-44
2022/12/31 07:16:26;;;;;;;134.27;74.87;;;;;;;2.38;84.83;95136.95;1682904;84;21023;-44
2022/12/31 07:19:32;;;;;;;154.78;81.25;;;;;;;2.46;84.64;95133.86;1671806;84;21466;-42
2022/12/31 07:22:00;;;;;;;102.02;60.25;;;;;;;2.56;85.12;95139.90;1683858;84;21071;-44
2022/12/31 07:24:28;;;;;;;107.37;60.73;;;;;;;2.69;84.59;95143.02;1685728;84;20979;-44
2022/12/31 07:27:23;;;;;;;193.32;97.53;;;;;;;2.75;84.91;95152.31;1678534;84;21621;-44
2022/12/31 07:30:10;;;;;;;245.65;121.00;;;;;;;2.90;84.95;95141.06;1681056;84;21224;-45
2022/12/31 07:33:05;;;;;;;165.75;89.40;;;;;;;3.11;85.10;95141.64;1640616;84;21575;-44
2022/12/31 07:36:04;;;;;;;133.72;68.95;;;;;;;3.25;84.40;95126.68;1629876;86;21638;-44
2022/12/31 07:38:48;;;;;;;132.72;70.40;;;;;;;3.29;84.03;95116.57;1588944;87;21533;-45
2022/12/31 07:41:52;;;;;;;144.35;76.35;;;;;;;3.27;83.20;95124.34;1591794;88;21061;-46
2022/12/31 07:44:44;;;;;;;208.00;90.90;;;;;;;3.26;83.32;95114.64;1544748;92;21075;-46
2022/12/31 07:47:24;;;;;;;169.25;83.45;;;;;;;3.37;83.46;95113.45;1560824;90;21186;-45
2022/12/31 07:49:52;;;;;;;960.20;710.60;;;;;;;3.45;82.93;95114.20;1577889;89;21646;-44
2022/12/31 07:52:20;;;;;;;267.15;179.95;;;;;;;3.40;82.91;95114.61;1583973;87;21165;-45
2022/12/31 07:54:47;;;;;;;210.00;116.93;;;;;;;3.44;83.33;95131.09;1602555;88;21135;-46
2022/12/31 07:57:16;;;;;;;206.45;125.97;;;;;;;3.53;83.18;95125.44;1580292;88;21077;-44
2022/12/31 08:00:02;;;;;;;202.57;112.08;;;;;;;3.60;83.03;95125.43;1571452;89;21266;-44
2022/12/31 08:02:58;;;;;;;179.57;99.00;;;;;;;3.67;82.81;95139.00;1553691;89;21194;-44
2022/12/31 08:05:52;;;;;;;157.93;88.47;;;;;;;3.68;82.81;95128.31;1548312;91;21076;-45
2022/12/31 08:08:35;;;;;;;172.75;91.20;;;;;;;3.70;82.54;95145.01;1548016;92;21164;-47
2022/12/31 08:11:30;;;;;;;146.77;82.55;;;;;;;3.72;82.95;95135.87;1547283;91;21207;-46
2022/12/31 08:14:02;;;;;;;189.62;105.43;;;;;;;3.87;83.01;95144.78;1550332;91;21296;-45
2022/12/31 08:16:31;;;;;;;238.37;126.12;;;;;;;3.92;82.81;95135.63;1554549;91;21112;-44
2022/12/31 08:18:59;;;;;;;213.90;119.50;;;;;;;4.08;83.46;95129.12;1556084;91;21269;-45
2022/12/31 08:21:39;;;;;;;203.52;110.70;;;;;;;4.24;83.45;95142.28;1550332;91;21081;-44
2022/12/31 08:24:54;;;;;;;144.05;82.05;;;;;;;4.43;83.58;95135.73;1508907;92;21212;-44
2022/12/31 08:28:02;;;;;;;139.30;81.65;;;;;;;4.61;82.98;95147.30;1515936;93;21172;-45
2022/12/31 08:31:09;;;;;;;144.05;86.47;;;;;;;4.76;82.97;95144.67;1562394;89;21069;-45
2022/12/31 08:34:10;;;;;;;200.40;119.72;;;;;;;5.01;82.95;95130.26;1560599;90;21131;-44
2022/12/31 08:36:58;;;;;;;173.85;111.68;;;;;;;5.33;82.66;95138.37;1566060;90;21035;-46
2022/12/31 08:39:51;;;;;;;158.68;98.85;;;;;;;5.58;82.23;95124.49;1581010;90;21074;-47
2022/12/31 08:42:33;;;;;;;152.95;96.75;;;;;;;5.64;80.94;95120.89;1646484;85;21363;-45
2022/12/31 08:45:28;;;;;;;139.95;93.60;;;;;;;5.60;80.97;95131.68;1575162;89;21140;-44
2022/12/31 08:48:06;;;;;;;136.43;91.45;;;;;;;5.66;81.17;95131.41;1566784;90;21032;-43
2022/12/31 08:50:34;;;;;;;321.23;154.87;;;;;;;5.79;81.14;95134.59;1567103;89;21220;-45
2022/12/31 08:53:02;;;;;;;158.05;100.42;;;;;;;5.88;81.13;95128.66;1551023;90;21156;-44
2022/12/31 08:55:30;;;;;;;137.05;95.10;;;;;;;6.02;81.87;95131.23;1553027;89;21236;-45
2022/12/31 08:58:29;;;;;;;162.97;104.03;;;;;;;6.23;81.55;95135.06;1558171;90;21667;-46
2022/12/31 09:00:57;;;;;;;206.95;118.25;;;;;;;6.37;81.59;95121.22;1581636;84;21350;-45
2022/12/31 09:03:56;;;;;;;198.20;109.67;;;;;;;6.48;81.09;95119.12;1679654;84;21564;-46
2022/12/31 09:06:33;;;;;;;95.17;60.88;;;;;;;6.51;81.44;95104.64;1667140;84;21486;-44
2022/12/31 09:09:32;;;;;;;118.95;74.55;;;;;;;6.64;83.45;95115.95;1684859;82;21150;-45
2022/12/31 09:12:25;;;;;;;95.20;63.13;;;;;;;6.81;83.33;95101.83;1688094;84;21086;-45
2022/12/31 09:15:07;;;;;;;88.90;60.52;;;;;;;7.00;83.78;95095.66;1594466;86;21027;-44
2022/12/31 09:17:49;;;;;;;63.23;39.90;;;;;;;7.26;83.59;95080.56;1604986;86;21063;-44
2022/12/31 09:20:27;;;;;;;19.85;13.60;;;;;;;7.58;83.83;95082.92;1594452;88;21067;-46
2022/12/31 09:22:54;;;;;;;64.30;37.28;;;;;;;8.11;84.78;95074.41;1619067;86;22046;-45
2022/12/31 09:25:22;;;;;;;55.10;32.15;;;;;;;8.75;83.18;95063.63;1630328;86;21515;-46
2022/12/31 09:28:11;;;;;;;23.77;15.28;;;;;;;9.20;81.97;95075.45;1656119;86;21564;-46
2022/12/31 09:31:09;;;;;;;17.82;15.85;;;;;;;9.59;80.74;95068.39;1616255;87;21641;-45
2022/12/31 09:33:50;;;;;;;17.75;15.30;;;;;;;9.94;78.90;95072.90;1639909;86;21029;-46
2022/12/31 09:36:24;;;;;;;14.73;13.15;;;;;;;10.32;76.25;95075.20;1588963;88;21256;-46
2022/12/31 09:38:57;;;;;;;22.20;18.98;;;;;;;10.55;73.92;95060.52;1589811;88;21243;-44
2022/12/31 09:41:56;;;;;;;22.37;20.20;;;;;;;10.71;73.50;95056.30;1593645;89;21838;-44
2022/12/31 09:45:01;;;;;;;16.62;15.03;;;;;;;10.86;73.17;95058.19;1587703;89;21115;-44
2022/12/31 09:48:02;;;;;;;8.58;7.40;;;;;;;11.03;71.94;95059.61;1601335;89;21089;-44
2022/12/31 09:51:10;;;;;;;12.23;11.03;;;;;;;11.33;71.00;95057.62;1562861;90;21361;-45
2022/12/31 09:53:54;;;;;;;8.60;7.80;;;;;;;11.79;69.48;95068.48;1550157;90;21668;-45
2022/12/31 09:56:29;;;;;;;6.10;5.50;;;;;;;12.17;66.92;95056.08;1529069;91;21068;-45
2022/12/31 09:59:12;;;;;;;14.07;11.43;;;;;;;12.36;66.02;95057.73;1539047;91;21110;-44
2022/12/31 10:01:56;;;;;;;7.75;6.10;;;;;;;12.44;66.08;95059.00;1537286;91;21286;-44
2022/12/31 10:04:49;;;;;;;8.48;7.15;;;;;;;12.53;63.51;95059.82;1533193;91;21168;-44
2022/12/31 10:07:38;;;;;;;6.60;5.67;;;;;;;12.59;63.79;95060.01;1549016;91;21286;-44
2022/12/31 10:10:15;;;;;;;7.60;6.10;;;;;;;12.53;62.70;95043.89;1548140;91;21221;-44
2022/12/31 10:12:59;;;;;;;8.98;6.28;;;;;;;12.46;63.03;95053.04;1550355;91;22018;-46
2022/12/31 10:15:49;;;;;;;10.60;8.40;;;;;;;12.47;62.77;95049.81;1510802;93;21689;-45
2022/12/31 10:18:54;;;;;;;6.12;4.78;;;;;;;12.48;62.83;95054.11;1504878;94;21312;-45
2022/12/31 10:21:32;;;;;;;5.47;4.87;;;;;;;12.45;62.85;95055.02;1481934;94;21034;-45
2022/12/31 10:24:05;;;;;;;5.25;4.75;;;;;;;12.45;63.23;95050.12;1495642;94;21141;-46
2022/12/31 10:26:49;;;;;;;9.53;6.65;;;;;;;12.65;62.19;95041.63;1520588;93;21056;-46
2022/12/31 10:29:55;;;;;;;4.22;3.90;;;;;;;12.88;61.19;95049.42;1515175;93;21173;-46
2022/12/31 10:32:45;;;;;;;3.70;3.40;;;;;;;13.12;60.18;95051.83;1518942;92;21284;-45
2022/12/31 10:35:57;;;;;;;4.60;4.20;;;;;;;13.52;59.45;95060.23;1549830;90;21105;-44
2022/12/31 10:38:35;;;;;;;4.45;4.05;;;;;;;14.02;58.32;95069.95;1502172;93;21257;-46
2022/12/31 10:41:41;;;;;;;3.70;3.20;;;;;;;14.67;56.20;95072.36;1553600;90;21162;-46
2022/12/31 10:44:31;;;;;;;3.85;3.45;;;;;;;14.84;55.46;95067.38;1533524;92;21055;-45
2022/12/31 10:47:23;;;;;;;4.03;3.60;;;;;;;14.96;55.27;95073.98;1543368;91;21201;-45
2022/12/31 10:50:35;;;;;;;9.43;7.35;;;;;;;15.12;54.75;95072.98;1538981;91;21167;-46
2022/12/31 10:53:25;;;;;;;5.33;4.20;;;;;;;15.42;54.22;95069.19;1531462;91;21079;-45
2022/12/31 10:56:22;;;;;;;6.35;4.85;;;;;;;15.92;52.88;95070.26;1534036;92;21217;-44
2022/12/31 10:59:35;;;;;;;8.93;7.10;;;;;;;16.22;52.03;95069.86;1543005;91;21090;-45
2022/12/31 11:02:07;;;;;;;4.20;3.75;;;;;;;16.78;49.69;95065.50;1518812;93;26646;-44
2022/12/31 11:04:59;;;;;;;6.30;5.70;;;;;;;17.16;48.67;95063.98;1518014;93;28784;-45
2022/12/31 11:07:54;;;;;;;4.00;3.67;;;;;;;17.13;48.23;95063.56;1517497;94;21024;-46
2022/12/31 11:10:41;;;;;;;8.70;6.28;;;;;;;17.10;48.23;95049.23;1513539;93;21243;-46
2022/12/31 11:13:35;;;;;;;7.62;6.05;;;;;;;17.08;48.04;95048.95;1508784;93;21087;-44
2022/12/31 11:16:39;;;;;;;8.40;6.10;;;;;;;17.08;48.56;95053.87;1555121;90;21553;-45
2022/12/31 11:19:32;;;;;;;15.40;10.82;;;;;;;17.14;47.58;95057.53;1533276;91;21202;-45
2022/12/31 11:22:17;;;;;;;18.85;11.35;;;;;;;17.24;47.58;95054.77;1519941;92;21244;-44
2022/12/31 11:25:16;;;;;;;12.33;8.50;;;;;;;17.27;47.47;95054.44;1526910;90;21155;-45
2022/12/31 11:28:13;;;;;;;18.90;9.83;;;;;;;17.42;47.50;95055.20;1607654;87;21039;-44
2022/12/31 11:31:02;;;;;;;23.67;12.78;;;;;;;17.76;46.35;95055.79;1630092;86;21301;-45
2022/12/31 11:34:25;;;;;;;13.58;8.28;;;;;;;17.86;45.88;95048.84;1616358;87;21093;-47
2022/12/31 11:37:37;;;;;;;7.08;5.25;;;;;;;17.62;46.28;95030.95;1591697;89;21097;-46
2022/12/31 11:40:43;;;;;;;12.53;7.08;;;;;;;17.32;46.30;95035.03;1609959;87;21087;-46
2022/12/31 11:43:34;;;;;;;6.97;5.30;;;;;;;17.50;46.75;95035.45;1620255;88;21023;-44
2022/12/31 11:46:26;;;;;;;5.35;3.95;;;;;;;18.17;44.17;95043.42;1615517;88;21305;-45
2022/12/31 11:49:18;;;;;;;10.32;6.60;;;;;;;18.71;43.68;95042.65;1555381;91;21132;-45
2022/12/31 11:52:11;;;;;;;9.15;6.30;;;;;;;19.39;43.01;95044.88;1637070;86;21045;-44
2022/12/31 11:55:09;;;;;;;;;;;;;;;20.13;42.03;95044.33;1630843;86;21199;-44
2022/12/31 11:57:38;;;;;;;845.00;625.65;;;;;;;20.56;40.70;95050.58;1552911;91;20240;-48
2022/12/31 12:00:19;;;;;;;36.28;27.65;;;;;;;20.45;40.39;95061.72;1553959;91;21801;-46
2022/12/31 12:02:50;;;;;;;6.17;5.50;;;;;;;20.05;40.58;95064.86;1552776;90;21122;-45
2022/12/31 12:05:22;;;;;;;4.85;4.03;;;;;;;19.48;41.66;95071.22;1557068;90;21061;-44
2022/12/31 12:07:49;;;;;;;16.05;9.15;;;;;;;19.08;42.08;95069.98;1571851;89;21005;-45
2022/12/31 12:10:27;;;;;;;6.72;4.45;;;;;;;18.50;43.70;95073.19;1553968;91;21557;-45
2022/12/31 12:12:55;;;;;;;4.00;2.92;;;;;;;17.93;44.53;95075.66;1532457;92;21178;-45
2022/12/31 12:15:33;;;;;;;4.87;3.30;;;;;;;17.39;45.33;95084.74;1625056;86;21037;-45
2022/12/31 12:18:05;;;;;;;21.90;19.62;;;;;;;16.95;46.67;95069.33;1619872;87;21094;-44
2022/12/31 12:20:37;;;;;;;5.45;4.22;;;;;;;16.83;47.21;95067.60;1544015;91;21144;-45
2022/12/31 12:23:25;;;;;;;3.70;3.40;;;;;;;16.81;47.16;95067.31;1581492;89;21111;-44